Time,TemperatureF,DewpointF,PressureIn,WindDirection,WindDirectionDegrees,WindSpeedMPH,WindSpeedGustMPH,Humidity,HourlyPrecipIn,Conditions,Clouds,dailyrainin,SoftwareType,DateUTC
2013-03-11 00:04:00,32.7,30.0,30.30,SW,226,1.0,3.0,88,0.00,,,0.00,weatherlink.com 1.10,2013-03-11 04:04:00,
2013-03-11 00:19:00,32.7,30.0,30.31,SSW,192,3.0,3.0,88,0.00,,,0.00,weatherlink.com 1.10,2013-03-11 04:19:00,
2013-03-11 00:34:00,32.6,30.0,30.30,SSE,149,0.0,2.0,88,0.00,,,0.00,weatherlink.com 1.10,2013-03-11 04:34:00,
2013-03-11 00:49:00,32.3,29.0,30.30,SSE,155,0.0,1.0,88,0.00,,,0.00,weatherlink.com 1.10,2013-03-11 04:49:00,
2013-03-11 01:05:00,32.0,29.0,30.32,SSE,155,0.0,1.0,89,0.00,,,0.00,weatherlink.com 1.10,2013-03-11 05:05:00,
2013-03-11 01:20:00,32.0,29.0,30.32,SSE,163,0.0,1.0,90,0.00,,,0.00,weatherlink.com 1.10,2013-03-11 05:20:00,
2013-03-11 01:35:00,32.3,30.0,30.31,SE,125,0.0,2.0,89,0.00,,,0.00,weatherlink.com 1.10,2013-03-11 05:35:00,
2013-03-11 01:50:00,32.3,30.0,30.31,SE,146,1.0,1.0,89,0.00,,,0.00,weatherlink.com 1.10,2013-03-11 05:50:00,
2013-03-11 02:05:00,32.4,30.0,30.32,SSW,201,0.0,3.0,89,0.00,,,0.00,weatherlink.com 1.10,2013-03-11 06:05:00,
2013-03-11 02:20:00,32.4,30.0,30.31,WSW,240,3.0,3.0,89,0.00,,,0.00,weatherlink.com 1.10,2013-03-11 06:20:00,
2013-03-11 02:35:00,32.3,30.0,30.30,North,359,1.0,2.0,89,0.00,,,0.00,weatherlink.com 1.10,2013-03-11 06:35:00,
2013-03-11 02:50:00,32.3,30.0,30.29,WSW,245,0.0,2.0,89,0.00,,,0.00,weatherlink.com 1.10,2013-03-11 06:50:00,
2013-03-11 03:05:00,32.0,29.0,30.27,North,360,1.0,1.0,90,0.00,,,0.00,weatherlink.com 1.10,2013-03-11 07:05:00,
2013-03-11 03:20:00,31.5,29.0,30.27,North,3,0.0,1.0,90,0.00,,,0.00,weatherlink.com 1.10,2013-03-11 07:20:00,
2013-03-11 03:35:00,31.1,29.0,30.26,SSW,208,0.0,2.0,91,0.00,,,0.00,weatherlink.com 1.10,2013-03-11 07:35:00,
2013-03-11 03:50:00,30.8,29.0,30.27,SSW,208,0.0,1.0,92,0.00,,,0.00,weatherlink.com 1.10,2013-03-11 07:50:00,
2013-03-11 04:05:00,30.5,29.0,30.27,SSW,208,0.0,1.0,92,0.00,,,0.00,weatherlink.com 1.10,2013-03-11 08:05:00,
2013-03-11 04:20:00,30.0,28.0,30.26,SSW,208,0.0,0.0,92,0.00,,,0.00,weatherlink.com 1.10,2013-03-11 08:20:00,
2013-03-11 04:35:00,29.8,28.0,30.25,SSW,208,0.0,0.0,93,0.00,,,0.00,weatherlink.com 1.10,2013-03-11 08:35:00,
2013-03-11 04:50:00,29.4,28.0,30.25,SSW,208,0.0,0.0,93,0.00,,,0.00,weatherlink.com 1.10,2013-03-11 08:50:00,
2013-03-11 05:05:00,29.0,27.0,30.24,SSW,208,0.0,0.0,93,0.00,,,0.00,weatherlink.com 1.10,2013-03-11 09:05:00,
2013-03-11 05:20:00,28.8,27.0,30.23,SSW,208,0.0,0.0,94,0.00,,,0.00,weatherlink.com 1.10,2013-03-11 09:20:00,
2013-03-11 05:35:00,29.1,28.0,30.24,ESE,111,0.0,1.0,94,0.00,,,0.00,weatherlink.com 1.10,2013-03-11 09:35:00,
2013-03-11 05:50:00,29.2,28.0,30.24,SW,228,0.0,1.0,94,0.00,,,0.00,weatherlink.com 1.10,2013-03-11 09:50:00,
2013-03-11 06:05:00,29.0,28.0,30.25,WSW,253,0.0,1.0,94,0.00,,,0.00,weatherlink.com 1.10,2013-03-11 10:05:00,
2013-03-11 06:20:00,29.0,28.0,30.26,WSW,252,0.0,0.0,94,0.00,,,0.00,weatherlink.com 1.10,2013-03-11 10:20:00,
2013-03-11 06:35:00,28.8,27.0,30.26,WSW,253,0.0,0.0,94,0.00,,,0.00,weatherlink.com 1.10,2013-03-11 10:35:00,
2013-03-11 06:50:00,29.0,28.0,30.25,WSW,253,0.0,0.0,94,0.00,,,0.00,weatherlink.com 1.10,2013-03-11 10:50:00,
2013-03-11 07:05:00,29.2,28.0,30.25,WSW,253,0.0,0.0,95,0.00,,,0.00,weatherlink.com 1.10,2013-03-11 11:05:00,
2013-03-11 07:20:00,29.6,28.0,30.25,NW,316,0.0,1.0,95,0.00,,,0.00,weatherlink.com 1.10,2013-03-11 11:20:00,
2013-03-11 07:35:00,29.9,28.0,30.25,NW,316,0.0,0.0,94,0.00,,,0.00,weatherlink.com 1.10,2013-03-11 11:35:00,
2013-03-11 07:50:00,29.9,28.0,30.25,NW,316,0.0,1.0,94,0.00,,,0.00,weatherlink.com 1.10,2013-03-11 11:50:00,
2013-03-11 08:05:00,30.2,29.0,30.25,NW,316,0.0,1.0,94,0.00,,,0.00,weatherlink.com 1.10,2013-03-11 12:05:00,
2013-03-11 08:20:00,31.3,30.0,30.25,SW,224,5.0,5.0,94,0.00,,,0.00,weatherlink.com 1.10,2013-03-11 12:20:00,
2013-03-11 08:35:00,32.3,30.0,30.25,SW,221,3.0,5.0,92,0.00,,,0.00,weatherlink.com 1.10,2013-03-11 12:35:00,
2013-03-11 08:50:00,33.6,31.0,30.25,South,187,4.0,5.0,89,0.00,,,0.00,weatherlink.com 1.10,2013-03-11 12:50:00,
2013-03-11 09:05:00,34.6,31.0,30.25,WNW,287,5.0,9.0,86,0.00,,,0.00,weatherlink.com 1.10,2013-03-11 13:05:00,
2013-03-11 09:20:00,35.3,31.0,30.24,SSE,166,0.0,4.0,84,0.00,,,0.00,weatherlink.com 1.10,2013-03-11 13:20:00,
2013-03-11 09:35:00,36.2,31.0,30.24,SW,226,2.0,8.0,82,0.00,,,0.00,weatherlink.com 1.10,2013-03-11 13:35:00,
2013-03-11 09:50:00,37.2,32.0,30.24,SE,131,2.0,7.0,80,0.00,,,0.00,weatherlink.com 1.10,2013-03-11 13:50:00,
2013-03-11 10:06:00,38.1,32.0,30.25,ESE,113,4.0,9.0,78,0.00,,,0.00,weatherlink.com 1.10,2013-03-11 14:06:00,
2013-03-11 10:21:00,39.6,32.0,30.25,West,264,1.0,7.0,75,0.00,,,0.00,weatherlink.com 1.10,2013-03-11 14:21:00,
2013-03-11 11:21:00,42.2,33.0,30.24,ESE,123,2.0,8.0,69,0.00,,,0.00,weatherlink.com 1.10,2013-03-11 15:21:00,
2013-03-11 11:36:00,44.0,32.0,30.24,East,98,3.0,6.0,64,0.00,,,0.00,weatherlink.com 1.10,2013-03-11 15:36:00,
2013-03-11 12:06:00,44.8,32.0,30.22,South,176,4.0,7.0,62,0.00,,,0.00,weatherlink.com 1.10,2013-03-11 16:06:00,
2013-03-11 12:36:00,46.7,32.0,30.21,ESE,117,2.0,5.0,57,0.00,,,0.00,weatherlink.com 1.10,2013-03-11 16:36:00,
2013-03-11 12:51:00,48.2,32.0,30.22,SSW,204,2.0,6.0,54,0.00,,,0.00,weatherlink.com 1.10,2013-03-11 16:51:00,
2013-03-11 13:21:00,51.7,31.0,30.20,SSW,205,3.0,7.0,46,0.00,,,0.00,weatherlink.com 1.10,2013-03-11 17:21:00,
2013-03-11 13:36:00,52.0,31.0,30.20,SE,139,1.0,8.0,45,0.00,,,0.00,weatherlink.com 1.10,2013-03-11 17:36:00,
2013-03-11 14:06:00,51.9,31.0,30.18,SE,131,3.0,6.0,45,0.00,,,0.00,weatherlink.com 1.10,2013-03-11 18:06:00,
2013-03-11 14:21:00,51.7,31.0,30.18,WSW,250,5.0,8.0,45,0.00,,,0.00,weatherlink.com 1.10,2013-03-11 18:21:00,
2013-03-11 14:36:00,51.0,31.0,30.18,WSW,257,8.0,9.0,46,0.00,,,0.00,weatherlink.com 1.10,2013-03-11 18:36:00,
2013-03-11 14:52:00,50.9,30.0,30.18,South,184,3.0,6.0,45,0.00,,,0.00,weatherlink.com 1.10,2013-03-11 18:52:00,
2013-03-11 15:06:00,50.4,31.0,30.18,SE,132,1.0,6.0,48,0.00,,,0.00,weatherlink.com 1.10,2013-03-11 19:06:00,
2013-03-11 15:22:00,50.0,31.0,30.17,SSW,203,3.0,6.0,49,0.00,,,0.00,weatherlink.com 1.10,2013-03-11 19:22:00,
2013-03-11 15:37:00,49.1,32.0,30.17,East,100,0.0,4.0,53,0.00,,,0.00,weatherlink.com 1.10,2013-03-11 19:37:00,
2013-03-11 15:52:00,48.3,33.0,30.17,SE,138,0.0,2.0,55,0.00,,,0.00,weatherlink.com 1.10,2013-03-11 19:52:00,
2013-03-11 16:07:00,47.9,33.0,30.16,SE,134,1.0,3.0,56,0.00,,,0.00,weatherlink.com 1.10,2013-03-11 20:07:00,
2013-03-11 16:22:00,47.8,32.0,30.16,SW,216,1.0,4.0,54,0.00,,,0.00,weatherlink.com 1.10,2013-03-11 20:22:00,
2013-03-11 16:37:00,47.7,32.0,30.16,SSE,156,0.0,4.0,54,0.00,,,0.00,weatherlink.com 1.10,2013-03-11 20:37:00,
2013-03-11 16:52:00,47.5,32.0,30.16,WSW,238,3.0,4.0,55,0.00,,,0.00,weatherlink.com 1.10,2013-03-11 20:52:00,
2013-03-11 17:07:00,46.8,32.0,30.15,WSW,250,1.0,6.0,57,0.00,,,0.00,weatherlink.com 1.10,2013-03-11 21:07:00,
2013-03-11 17:22:00,46.7,32.0,30.15,SSW,208,2.0,4.0,58,0.00,,,0.00,weatherlink.com 1.10,2013-03-11 21:22:00,
2013-03-11 17:37:00,46.6,33.0,30.15,SSW,195,0.0,3.0,59,0.00,,,0.00,weatherlink.com 1.10,2013-03-11 21:37:00,
2013-03-11 17:52:00,46.5,33.0,30.15,East,81,4.0,4.0,59,0.00,,,0.00,weatherlink.com 1.10,2013-03-11 21:52:00,
2013-03-11 18:07:00,46.1,33.0,30.15,West,260,0.0,1.0,61,0.00,,,0.00,weatherlink.com 1.10,2013-03-11 22:07:00,
2013-03-11 18:22:00,46.0,33.0,30.15,SW,221,0.0,3.0,61,0.00,,,0.00,weatherlink.com 1.10,2013-03-11 22:22:00,
2013-03-11 18:37:00,45.8,33.0,30.14,SW,221,4.0,5.0,62,0.00,,,0.00,weatherlink.com 1.10,2013-03-11 22:37:00,
2013-03-11 18:52:00,46.2,34.0,30.14,ESE,121,3.0,6.0,62,0.00,,,0.00,weatherlink.com 1.10,2013-03-11 22:52:00,
2013-03-11 19:07:00,46.1,34.0,30.14,SE,142,0.0,5.0,62,0.00,,,0.00,weatherlink.com 1.10,2013-03-11 23:07:00,
2013-03-11 19:22:00,46.3,34.0,30.15,SE,137,2.0,6.0,62,0.00,,,0.00,weatherlink.com 1.10,2013-03-11 23:22:00,
2013-03-11 19:37:00,46.1,34.0,30.15,SE,134,1.0,6.0,63,0.00,,,0.00,weatherlink.com 1.10,2013-03-11 23:37:00,
2013-03-11 19:52:00,46.0,34.0,30.14,SE,142,3.0,5.0,63,0.00,,,0.00,weatherlink.com 1.10,2013-03-11 23:52:00,
2013-03-11 20:07:00,45.9,34.0,30.14,SSE,165,2.0,4.0,63,0.00,,,0.00,weatherlink.com 1.10,2013-03-12 00:07:00,
2013-03-11 20:22:00,45.4,34.0,30.14,South,171,1.0,4.0,64,0.00,,,0.00,weatherlink.com 1.10,2013-03-12 00:22:00,
2013-03-11 20:37:00,44.9,34.0,30.14,SSW,202,1.0,5.0,67,0.00,,,0.00,weatherlink.com 1.10,2013-03-12 00:37:00,
2013-03-11 20:52:00,44.3,35.0,30.15,SSE,168,2.0,5.0,71,0.00,,,0.00,weatherlink.com 1.10,2013-03-12 00:52:00,
2013-03-11 21:07:00,43.9,36.0,30.15,SSE,161,4.0,7.0,73,0.00,,,0.00,weatherlink.com 1.10,2013-03-12 01:07:00,
2013-03-11 21:22:00,43.5,36.0,30.14,SSW,208,1.0,8.0,76,0.00,,,0.00,weatherlink.com 1.10,2013-03-12 01:22:00,
2013-03-11 21:37:00,43.0,37.0,30.14,SE,146,4.0,7.0,78,0.00,,,0.00,weatherlink.com 1.10,2013-03-12 01:37:00,
2013-03-11 21:52:00,43.0,37.0,30.14,SSE,162,5.0,9.0,80,0.00,,,0.00,weatherlink.com 1.10,2013-03-12 01:52:00,
2013-03-11 22:07:00,42.6,37.0,30.14,SSE,160,2.0,5.0,81,0.00,,,0.00,weatherlink.com 1.10,2013-03-12 02:07:00,
2013-03-11 22:22:00,42.5,37.0,30.14,SSE,150,3.0,7.0,82,0.00,,,0.00,weatherlink.com 1.10,2013-03-12 02:22:00,
2013-03-11 22:37:00,42.3,38.0,30.14,SW,226,2.0,5.0,83,0.00,,,0.00,weatherlink.com 1.10,2013-03-12 02:37:00,
2013-03-11 22:52:00,41.7,37.0,30.13,SSE,156,1.0,2.0,83,0.00,,,0.00,weatherlink.com 1.10,2013-03-12 02:52:00,
2013-03-11 23:07:00,41.2,37.0,30.14,SE,134,0.0,4.0,86,0.00,,,0.00,weatherlink.com 1.10,2013-03-12 03:07:00,
2013-03-11 23:22:00,40.9,37.0,30.14,SE,136,2.0,3.0,87,0.00,,,0.00,weatherlink.com 1.10,2013-03-12 03:22:00,
2013-03-11 23:37:00,40.8,37.0,30.14,WSW,243,2.0,4.0,87,0.00,,,0.00,weatherlink.com 1.10,2013-03-12 03:37:00,
2013-03-11 23:52:00,40.7,38.0,30.14,SSE,167,1.0,4.0,88,0.00,,,0.00,weatherlink.com 1.10,2013-03-12 03:52:00,